»·PEaware :: N973SE KBFL-KSBP

N973SE :: KBFL-KSBP

FLIGHT INFORMATION

Flight Status: Arrived
Operator: Privately registered:
United States
More flights under this callsign
Pilot: Stig E. (4778)
Aircraft: CESSNA 310
(C310)
More flights by this aircraft type
Origin: KBFL Meadows
United States
Destination: KSBP San Luis Co Regl
United States
More flights between these airports :: More routes between these airports
Route: FASTO GMN LHS FIM V386 RZS FLW
File this flight plan on PilotEdge
Remarks:
Altitude:
(Current/Filed)
14,500ft
Speed:
(Current/Filed)
170kts
Departed: 15-Jan-19 12:44 AM
Arrived: 15-Jan-19 01:55 AM
Distance/Time
Traveled:
78nm/1:11
Distance/Time
To Go:
Arrived

Flight Plot

Page will automatically refresh every two minutes.

Flight plan parsing failed; only flown route is shown


Map Options




Map Legend


Flown Route
Filed Route
Departure Airport
Arrival Airport
Navaid (VOR, NDB)
Fix

Horizontal Profiles

Position Reports

Time Latitude Longitude Heading Altitude Ground
Speed
15-Jan-19 00:33 35.435714 -119.052044 180 509ft 0kts
15-Jan-19 00:34 35.435714 -119.052044 180 509ft 0kts
15-Jan-19 00:35 35.435714 -119.052044 180 509ft 0kts
15-Jan-19 00:36 35.435714 -119.052044 180 509ft 0kts
15-Jan-19 00:37 35.435714 -119.052044 180 509ft 0kts
15-Jan-19 00:38 35.435220 -119.053492 216 500ft 15kts
15-Jan-19 00:39 35.437195 -119.058044 315 495ft 18kts
15-Jan-19 00:40 35.440752 -119.062327 315 501ft 17kts
15-Jan-19 00:41 35.444164 -119.066455 313 506ft 17kts
15-Jan-19 00:42 35.446919 -119.070387 232 513ft 11kts
15-Jan-19 00:43 35.435796 -119.058307 134 735ft 123kts
15-Jan-19 00:44 35.408071 -119.021660 133 1725ft 157kts
15-Jan-19 00:45 35.375827 -118.984910 139 2730ft 160kts
15-Jan-19 00:46 35.348921 -118.953984 136 3558ft 161kts
15-Jan-19 00:47 35.316991 -118.915405 136 4557ft 162kts
15-Jan-19 00:48 35.284851 -118.876453 137 5558ft 162kts
15-Jan-19 00:49 35.243963 -118.861152 177 6553ft 158kts
15-Jan-19 00:50 35.200494 -118.860586 179 7545ft 155kts
15-Jan-19 00:51 35.157377 -118.860546 179 8541ft 154kts
15-Jan-19 00:52 35.114543 -118.860528 179 9533ft 153kts
15-Jan-19 00:53 35.071832 -118.860508 180 10522ft 154kts
15-Jan-19 00:54 35.028992 -118.860485 181 11510ft 154kts
15-Jan-19 00:55 34.985967 -118.860446 182 12498ft 154kts
15-Jan-19 00:56 34.942913 -118.859903 183 13485ft 154kts
15-Jan-19 00:57 34.899980 -118.859620 185 14455ft 154kts
15-Jan-19 00:58 34.851822 -118.859618 185 14527ft 181kts
15-Jan-19 00:59 34.802647 -118.848499 134 14541ft 209kts
15-Jan-19 01:00 34.772893 -118.785586 126 14530ft 215kts
15-Jan-19 01:01 34.744935 -118.720706 125 14541ft 215kts
15-Jan-19 01:02 34.717080 -118.655380 125 14555ft 215kts
15-Jan-19 01:03 34.687366 -118.593150 159 14562ft 197kts
15-Jan-19 01:04 34.642996 -118.615360 214 14477ft 173kts
15-Jan-19 01:05 34.604310 -118.649577 216 13987ft 171kts
15-Jan-19 01:06 34.566500 -118.684463 216 13497ft 170kts
15-Jan-19 01:07 34.528798 -118.719564 216 13005ft 171kts
15-Jan-19 01:08 34.491036 -118.754768 216 12559ft 168kts
15-Jan-19 01:09 34.455514 -118.787860 216 12545ft 156kts
15-Jan-19 01:10 34.421495 -118.819513 216 12545ft 152kts
15-Jan-19 01:11 34.387430 -118.851183 217 12559ft 164kts
15-Jan-19 01:12 34.361052 -118.894612 269 12561ft 185kts
15-Jan-19 01:13 34.369794 -118.957455 274 12554ft 189kts
15-Jan-19 01:14 34.380278 -119.019768 274 12554ft 188kts
15-Jan-19 01:15 34.391058 -119.081968 274 12552ft 187kts
15-Jan-19 01:16 34.401800 -119.143751 274 12550ft 187kts
15-Jan-19 01:17 34.412594 -119.205937 274 12547ft 187kts
15-Jan-19 01:18 34.423278 -119.267670 274 12544ft 187kts
15-Jan-19 01:19 34.433939 -119.329458 274 12540ft 187kts
15-Jan-19 01:20 34.444608 -119.391486 274 12535ft 187kts
15-Jan-19 01:21 34.455216 -119.453358 274 12531ft 187kts
15-Jan-19 01:22 34.465797 -119.515268 274 12525ft 187kts
15-Jan-19 01:23 34.476134 -119.575847 274 12301ft 177kts
15-Jan-19 01:24 34.485723 -119.632282 274 12304ft 166kts
15-Jan-19 01:25 34.494939 -119.686831 273 12309ft 164kts
15-Jan-19 01:26 34.504292 -119.742464 274 12053ft 174kts
15-Jan-19 01:27 34.530878 -119.785356 359 11580ft 215kts
15-Jan-19 01:28 34.591563 -119.786945 349 11085ft 216kts
15-Jan-19 01:29 34.651895 -119.795344 348 10589ft 216kts
15-Jan-19 01:30 34.710255 -119.804547 348 10380ft 210kts
15-Jan-19 01:31 34.769488 -119.814104 349 9893ft 215kts
15-Jan-19 01:32 34.829173 -119.823751 349 9404ft 215kts
15-Jan-19 01:33 34.888101 -119.833299 350 8921ft 214kts
15-Jan-19 01:34 34.947018 -119.842889 351 8434ft 212kts
15-Jan-19 01:35 35.005284 -119.852351 352 7947ft 209kts
15-Jan-19 01:36 35.062873 -119.861707 353 7455ft 205kts
15-Jan-19 01:37 35.095622 -119.906655 276 6951ft 196kts
15-Jan-19 01:38 35.103115 -119.972783 272 6445ft 190kts
15-Jan-19 01:40 35.111884 -120.035249 280 5922ft 182kts
15-Jan-19 01:41 35.124313 -120.095249 281 5410ft 180kts
15-Jan-19 01:42 35.136728 -120.154691 281 4901ft 179kts
15-Jan-19 01:43 35.148941 -120.213340 281 4518ft 171kts
15-Jan-19 01:44 35.160198 -120.267585 281 4459ft 163kts
15-Jan-19 01:45 35.171891 -120.324074 282 3970ft 175kts
15-Jan-19 01:46 35.183930 -120.382328 282 3469ft 176kts
15-Jan-19 01:47 35.195959 -120.440706 282 2967ft 176kts
15-Jan-19 01:48 35.194271 -120.492885 230 2467ft 160kts
15-Jan-19 01:49 35.189431 -120.527653 296 2045ft 137kts
15-Jan-19 01:50 35.204143 -120.560947 303 1906ft 112kts
15-Jan-19 01:51 35.222477 -120.593204 304 1536ft 118kts
15-Jan-19 01:52 35.241428 -120.626449 304 1185ft 115kts
15-Jan-19 01:53 35.254796 -120.660316 217 840ft 104kts
15-Jan-19 01:54 35.237720 -120.641689 126 216ft 55kts
15-Jan-19 01:55 35.236638 -120.637869 306 216ft 21kts
15-Jan-19 01:56 35.238621 -120.639153 267 216ft 0kts
15-Jan-19 01:57 35.238621 -120.639153 267 216ft 0kts
15-Jan-19 01:58 35.238621 -120.639153 267 215ft 0kts
15-Jan-19 01:59 35.238621 -120.639153 267 215ft 0kts
15-Jan-19 02:00 35.238621 -120.639153 267 215ft 0kts
15-Jan-19 02:01 35.238621 -120.639153 267 215ft 0kts
15-Jan-19 02:02 35.238621 -120.639153 267 215ft 0kts
15-Jan-19 02:03 35.238621 -120.639153 267 215ft 0kts
15-Jan-19 02:04 35.238621 -120.639153 267 215ft 0kts
15-Jan-19 02:05 35.238621 -120.639153 267 215ft 0kts
15-Jan-19 02:05 35.238621 -120.639153 267 215ft 0kts
15-Jan-19 02:06 35.238621 -120.639153 267 215ft 0kts
15-Jan-19 02:07 35.238621 -120.639153 267 215ft 0kts
15-Jan-19 02:08 35.238621 -120.639153 267 215ft 0kts

Navigation Log

Ident Type
Flight plan parsing failed, navigation log unavailable